METAR Analyzer

一覧表示

Hello, Guest. (Login)

RJCC/CTS  -  札幌/新千歳

観測日時
2022-01-23 02:30 (UTC) (22分前)
気温
-3
露点
-7
湿数
4
相対湿度
73.8%
QNH
1020.0hPa
推定現地気圧
1017.0hPa
推定海面気圧
1020.2hPa
体感温度
-11.8
(無風時)
2.3
HI
-5.3
気温前日比
+1
体感温度前日比
+7.9
HI前日比
+0.6
水平視程
>10000m
鉛直視程
データなし
雲底高度
No dense clouds
V/I
VMC (VFR)
RVR
No RVR data
卓越風
4kt from 180°
ガスト
No gust
降水
報告なし
その他の天気
報告なし
少しの(1/8) 積雲 @ 3000ft AGL

RJCC 230230Z 18004KT 9999 FEW030 M03/M07 Q1019 RMK 1CU030 A3012

RJTT/HND  -  東京/羽田

観測日時
2022-01-23 02:30 (UTC) (22分前)
気温
6
露点
-5
湿数
11
相対湿度
45.1%
QNH
1021.7hPa
推定現地気圧
1021.0hPa
推定海面気圧
1021.7hPa
体感温度
-2.6
(無風時)
9.9
HI
3.8
気温前日比
±0
体感温度前日比
-2.5
HI前日比
±0
水平視程
>10000m
鉛直視程
データなし
雲底高度
Unknown
V/I
判定不可
RVR
No RVR data
卓越風
7kt from 340°
ガスト
No gust
降水
報告なし
その他の天気
報告なし
少しの(1/8) 積雲 @ 3000ft AGL / 隙間のある雲 @ 不明な高さ

RJTT 230230Z 34007KT 9999 FEW030 BKN/// 06/M05 Q1021 NOSIG RMK 1CU030 A3017

RJAA/NRT  -  東京/成田

観測日時
2022-01-23 02:30 (UTC) (22分前)
気温
6
露点
-1
湿数
7
相対湿度
60.7%
QNH
1021.3hPa
推定現地気圧
1020.0hPa
推定海面気圧
1021.4hPa
体感温度
-3.5
(無風時)
9.7
HI
4.2
気温前日比
±0
体感温度前日比
-4.8
HI前日比
+0.5
水平視程
>10000m
鉛直視程
データなし
雲底高度
4000ft AGL
V/I
VMC (VFR)
RVR
No RVR data
卓越風
7kt from 320°
ガスト
No gust
降水
報告なし
その他の天気
報告なし
少しの(1/8) 積雲 @ 2500ft AGL / 散在する(3/8) 積雲 @ 3000ft AGL / 隙間のある(5/8) 積雲 @ 4000ft AGL

RJAA 230230Z 32007KT 9999 FEW025 SCT030 BKN040 06/M01 Q1021 NOSIG RMK 1CU025 3CU030 5CU040 A3016

RJGG/NGO  -  名古屋/中部

観測日時
2022-01-23 02:30 (UTC) (22分前)
気温
4
露点
-2
湿数
6
相対湿度
64.9%
QNH
1022.0hPa
推定現地気圧
1021.5hPa
推定海面気圧
1022.0hPa
体感温度
-5.3
(無風時)
8.1
HI
2.1
気温前日比
-1
体感温度前日比
-2.8
HI前日比
-0.8
水平視程
>10000m
鉛直視程
データなし
雲底高度
10000ft AGL
V/I
VMC (VFR)
RVR
No RVR data
卓越風
6kt from 360°
ガスト
No gust
降水
報告なし
その他の天気
報告なし
少しの(1/8) 積雲 @ 2000ft AGL / 散在する(3/8) 層積雲 @ 4000ft AGL / 全天を覆う(8/8) 高層雲 @ 10000ft AGL

RJGG 230230Z 36006KT 9999 FEW020 SCT040 OVC100 04/M02 Q1022 NOSIG RMK 1CU020 3SC040 8AS100 A3018

RJOO/ITM  -  大阪/伊丹

観測日時
2022-01-23 02:00 (UTC) (52分前)
気温
5
露点
-1
湿数
6
相対湿度
65.1%
QNH
1022.4hPa
推定現地気圧
1020.9hPa
推定海面気圧
1022.4hPa
体感温度
1
(無風時)
8.8
HI
3.3
気温前日比
-1
体感温度前日比
+2.3
HI前日比
-0.6
水平視程
>10000m
鉛直視程
データなし
雲底高度
3500ft AGL
V/I
VMC (VFR)
RVR
No RVR data
卓越風
2kt from VRB
ガスト
No gust
降水
報告なし
その他の天気
報告なし
少しの(1/8) 積雲 @ 2500ft AGL / 隙間のある(6/8) 層積雲 @ 3500ft AGL / 隙間のある(7/8) 高積雲 @ 8000ft AGL

RJOO 230200Z VRB02KT 9999 FEW025 BKN035 BKN080 05/M01 Q1022 RMK 1CU025 6SC035 7AC080 A3019

RJBB/KIX  -  大阪/関西

観測日時
2022-01-23 02:30 (UTC) (22分前)
気温
5
露点
1
湿数
4
相対湿度
75.3%
QNH
1022hPa
推定現地気圧
1021.4hPa
推定海面気圧
1022.0hPa
体感温度
-1.2
(無風時)
8.6
HI
3.5
気温前日比
-2
体感温度前日比
+1.6
HI前日比
-1.5
水平視程
>10000m
鉛直視程
データなし
雲底高度
7000ft AGL
V/I
VMC (VFR)
RVR
No RVR data
卓越風
3kt from 80° (40° ~ 120°)
ガスト
No gust
降水
弱い雨
その他の天気
報告なし
少しの雲 @ 2000ft AGL / 散在する雲 @ 5000ft AGL / 隙間のある雲 @ 7000ft AGL

RJBB 230230Z 08003KT 040V120 9999 -RA FEW020 SCT050 BKN070 05/01 Q1022 NOSIG

RJFF/FUK  -  福岡

観測日時
2022-01-23 02:30 (UTC) (22分前)
気温
8
露点
7
湿数
1
相対湿度
93.4%
QNH
1018.3hPa
推定現地気圧
1017.2hPa
推定海面気圧
1018.3hPa
体感温度
3.2
(無風時)
10.9
HI
7.3
気温前日比
±0
体感温度前日比
-1.2
HI前日比
+1.1
水平視程
4500m
鉛直視程
データなし
雲底高度
5000ft AGL
V/I
SVMC (SVFR)
RVR
No RVR data
卓越風
2kt from VRB
ガスト
No gust
降水
弱い雨
その他の天気
もや
少しの(2/8) 層雲 @ 300ft AGL / 散在する(4/8) 層雲 @ 700ft AGL / 隙間のある(6/8) 層積雲 @ 5000ft AGL

RJFF 230230Z VRB02KT 4500 -RA BR FEW003 SCT007 BKN050 08/07 Q1018 NOSIG RMK 2ST003 4ST007 6SC050 A3007

ROAH/OKA  -  那覇

観測日時
2022-01-23 02:30 (UTC) (22分前)
気温
22
露点
19
湿数
3
相対湿度
83.1%
QNH
1012.9hPa
推定現地気圧
1012.5hPa
推定海面気圧
1012.9hPa
体感温度
12.9
(無風時)
22.7
HI
22.4
気温前日比
+2
体感温度前日比
+1
HI前日比
+2.4
水平視程
>10000m
鉛直視程
データなし
雲底高度
2600ft AGL
V/I
VMC (VFR)
RVR
No RVR data
卓越風
25kt from 180°
ガスト
No gust
降水
報告なし
その他の天気
報告なし
少しの(1/8) 積雲 @ 1000ft AGL / 散在する(3/8) 積雲 @ 1900ft AGL / 隙間のある(6/8) 積雲 @ 2600ft AGL

ROAH 230230Z 18025KT 9999 FEW010 SCT019 BKN026 22/19 Q1012 RMK 1CU010 3CU019 6CU026 A2991

478.9msec